Port-Gentil, Gabon
Current Conditions -  °F | °C
As of 2:00 PM on Sunday 21 Dec 2014 (Local Time) from FPST Reporting Station
Broken Clouds Broken Clouds  
Wind Chill: 84°   Ceiling: 25000
Heat Index: 94°   Visibility: 6mi
Dew Point: 77°   Wind: 7mph
Humidity: 79%   Direction: 140°SE
Pressure: 29.85"   Gusts: NA
Location:  0.72°S, 8.78°E
Report Text: FPST 211300Z 14006KT 9999 FEW017CB BKN250 29/25 Q1011 NOSIG
Loading
Personal Weather Stations






























Interactive Weather Map New forecast layout! Learn more

10-Day Weather Forecast

Advertisements
Track Severe Weather on mobile